sensor_id;sensor_type;location;lat;lon;timestamp;temperature;humidity
44747;DHT22;30472;49.490;10.972;2023-09-19T00:00:22;15.80;99.90
44747;DHT22;30472;49.490;10.972;2023-09-19T00:02:56;15.70;99.90
44747;DHT22;30472;49.490;10.972;2023-09-19T00:05:25;15.70;99.90
44747;DHT22;30472;49.490;10.972;2023-09-19T00:07:54;15.80;99.90
44747;DHT22;30472;49.490;10.972;2023-09-19T00:10:23;15.70;99.90
44747;DHT22;30472;49.490;10.972;2023-09-19T00:12:50;15.80;99.90
44747;DHT22;30472;49.490;10.972;2023-09-19T00:15:17;15.80;99.90
44747;DHT22;30472;49.490;10.972;2023-09-19T00:17:44;15.70;99.90
44747;DHT22;30472;49.490;10.972;2023-09-19T00:20:10;15.70;99.90
44747;DHT22;30472;49.490;10.972;2023-09-19T00:22:41;15.60;99.90
44747;DHT22;30472;49.490;10.972;2023-09-19T00:25:08;15.50;99.90
44747;DHT22;30472;49.490;10.972;2023-09-19T00:27:35;15.40;99.90
44747;DHT22;30472;49.490;10.972;2023-09-19T00:30:01;15.40;99.90
44747;DHT22;30472;49.490;10.972;2023-09-19T00:32:26;15.30;99.90
44747;DHT22;30472;49.490;10.972;2023-09-19T00:34:57;15.30;99.90
44747;DHT22;30472;49.490;10.972;2023-09-19T00:37:23;15.10;99.90
44747;DHT22;30472;49.490;10.972;2023-09-19T00:39:48;15.10;99.90
44747;DHT22;30472;49.490;10.972;2023-09-19T00:42:21;15.10;99.90
44747;DHT22;30472;49.490;10.972;2023-09-19T00:44:47;15.00;99.90
44747;DHT22;30472;49.490;10.972;2023-09-19T00:47:13;15.00;99.90
44747;DHT22;30472;49.490;10.972;2023-09-19T00:49:45;15.00;99.90
44747;DHT22;30472;49.490;10.972;2023-09-19T00:52:18;15.10;99.90
44747;DHT22;30472;49.490;10.972;2023-09-19T00:54:48;15.00;99.90
44747;DHT22;30472;49.490;10.972;2023-09-19T00:57:14;14.90;99.90
44747;DHT22;30472;49.490;10.972;2023-09-19T00:59:45;14.80;99.90
44747;DHT22;30472;49.490;10.972;2023-09-19T01:02:15;14.70;99.90
44747;DHT22;30472;49.490;10.972;2023-09-19T01:04:41;14.60;99.90
44747;DHT22;30472;49.490;10.972;2023-09-19T01:07:08;14.50;99.90
44747;DHT22;30472;49.490;10.972;2023-09-19T01:09:34;14.50;99.90
44747;DHT22;30472;49.490;10.972;2023-09-19T01:12:02;14.40;99.90
44747;DHT22;30472;49.490;10.972;2023-09-19T01:14:37;14.40;99.90
44747;DHT22;30472;49.490;10.972;2023-09-19T01:17:27;14.40;99.90
44747;DHT22;30472;49.490;10.972;2023-09-19T01:28:35;14.40;99.90
44747;DHT22;30472;49.490;10.972;2023-09-19T01:31:09;14.30;99.90
44747;DHT22;30472;49.490;10.972;2023-09-19T01:34:01;14.30;99.90
44747;DHT22;30472;49.490;10.972;2023-09-19T01:36:32;14.30;99.90
44747;DHT22;30472;49.490;10.972;2023-09-19T01:39:05;14.40;99.90
44747;DHT22;30472;49.490;10.972;2023-09-19T01:44:36;14.40;99.90
44747;DHT22;30472;49.490;10.972;2023-09-19T01:49:56;14.60;99.90
44747;DHT22;30472;49.490;10.972;2023-09-19T01:52:28;14.60;99.90
44747;DHT22;30472;49.490;10.972;2023-09-19T01:55:05;14.70;99.90
44747;DHT22;30472;49.490;10.972;2023-09-19T01:57:39;14.70;99.90
44747;DHT22;30472;49.490;10.972;2023-09-19T02:00:07;14.70;99.90
44747;DHT22;30472;49.490;10.972;2023-09-19T02:02:38;14.70;99.90
44747;DHT22;30472;49.490;10.972;2023-09-19T02:05:04;14.70;99.90
44747;DHT22;30472;49.490;10.972;2023-09-19T02:07:31;14.70;99.90
44747;DHT22;30472;49.490;10.972;2023-09-19T02:10:01;14.80;99.90
44747;DHT22;30472;49.490;10.972;2023-09-19T02:12:28;14.80;99.90
44747;DHT22;30472;49.490;10.972;2023-09-19T02:14:55;14.90;99.90
44747;DHT22;30472;49.490;10.972;2023-09-19T02:17:23;14.90;99.90
44747;DHT22;30472;49.490;10.972;2023-09-19T02:19:52;14.90;99.90
44747;DHT22;30472;49.490;10.972;2023-09-19T02:22:18;15.00;99.90
44747;DHT22;30472;49.490;10.972;2023-09-19T02:24:43;15.00;99.90
44747;DHT22;30472;49.490;10.972;2023-09-19T02:27:09;15.10;99.90
44747;DHT22;30472;49.490;10.972;2023-09-19T02:29:38;15.00;99.90
44747;DHT22;30472;49.490;10.972;2023-09-19T02:32:03;15.10;99.90
44747;DHT22;30472;49.490;10.972;2023-09-19T02:34:29;15.10;99.90
44747;DHT22;30472;49.490;10.972;2023-09-19T02:36:54;15.10;99.90
44747;DHT22;30472;49.490;10.972;2023-09-19T02:39:21;15.10;99.90
44747;DHT22;30472;49.490;10.972;2023-09-19T02:41:47;15.10;99.90
44747;DHT22;30472;49.490;10.972;2023-09-19T02:44:12;15.10;99.90
44747;DHT22;30472;49.490;10.972;2023-09-19T02:46:39;15.10;99.90
44747;DHT22;30472;49.490;10.972;2023-09-19T02:49:05;15.20;99.90
44747;DHT22;30472;49.490;10.972;2023-09-19T02:51:32;15.30;99.90
44747;DHT22;30472;49.490;10.972;2023-09-19T02:53:59;15.30;99.90
44747;DHT22;30472;49.490;10.972;2023-09-19T02:56:24;15.20;99.90
44747;DHT22;30472;49.490;10.972;2023-09-19T02:58:50;15.20;99.90
44747;DHT22;30472;49.490;10.972;2023-09-19T03:01:16;15.30;99.90
44747;DHT22;30472;49.490;10.972;2023-09-19T03:03:43;15.50;99.90
44747;DHT22;30472;49.490;10.972;2023-09-19T03:06:10;15.50;99.90
44747;DHT22;30472;49.490;10.972;2023-09-19T03:08:36;15.50;99.90
44747;DHT22;30472;49.490;10.972;2023-09-19T03:11:04;15.50;99.90
44747;DHT22;30472;49.490;10.972;2023-09-19T03:13:31;15.50;99.90
44747;DHT22;30472;49.490;10.972;2023-09-19T03:15:57;15.50;99.90
44747;DHT22;30472;49.490;10.972;2023-09-19T03:18:24;15.40;99.90
44747;DHT22;30472;49.490;10.972;2023-09-19T03:20:55;15.40;99.90
44747;DHT22;30472;49.490;10.972;2023-09-19T03:23:22;15.40;99.90
44747;DHT22;30472;49.490;10.972;2023-09-19T03:25:47;15.50;99.90
44747;DHT22;30472;49.490;10.972;2023-09-19T03:28:14;15.50;99.90
44747;DHT22;30472;49.490;10.972;2023-09-19T03:30:40;15.60;99.90
44747;DHT22;30472;49.490;10.972;2023-09-19T03:33:06;15.60;99.90
44747;DHT22;30472;49.490;10.972;2023-09-19T03:35:32;15.60;99.90
44747;DHT22;30472;49.490;10.972;2023-09-19T03:37:57;15.50;99.90
44747;DHT22;30472;49.490;10.972;2023-09-19T03:40:23;15.40;99.90
44747;DHT22;30472;49.490;10.972;2023-09-19T03:42:49;15.40;99.90
44747;DHT22;30472;49.490;10.972;2023-09-19T03:45:14;15.40;99.90
44747;DHT22;30472;49.490;10.972;2023-09-19T03:47:41;15.30;99.90
44747;DHT22;30472;49.490;10.972;2023-09-19T03:50:08;15.30;99.90
44747;DHT22;30472;49.490;10.972;2023-09-19T03:52:36;15.30;99.90
44747;DHT22;30472;49.490;10.972;2023-09-19T03:55:01;15.20;99.90
44747;DHT22;30472;49.490;10.972;2023-09-19T03:57:30;15.20;99.90
44747;DHT22;30472;49.490;10.972;2023-09-19T03:59:55;15.30;99.90
44747;DHT22;30472;49.490;10.972;2023-09-19T04:02:21;15.30;99.90
44747;DHT22;30472;49.490;10.972;2023-09-19T04:04:53;15.20;99.90
44747;DHT22;30472;49.490;10.972;2023-09-19T04:07:19;15.10;99.90
44747;DHT22;30472;49.490;10.972;2023-09-19T04:09:47;15.10;99.90
44747;DHT22;30472;49.490;10.972;2023-09-19T04:12:14;15.20;99.90
44747;DHT22;30472;49.490;10.972;2023-09-19T04:14:42;15.30;99.90
44747;DHT22;30472;49.490;10.972;2023-09-19T04:17:08;15.20;99.90
44747;DHT22;30472;49.490;10.972;2023-09-19T04:19:33;15.40;99.90
44747;DHT22;30472;49.490;10.972;2023-09-19T04:21:59;15.50;99.90
44747;DHT22;30472;49.490;10.972;2023-09-19T04:24:24;15.60;99.90
44747;DHT22;30472;49.490;10.972;2023-09-19T04:26:50;15.60;99.90
44747;DHT22;30472;49.490;10.972;2023-09-19T04:29:15;15.60;99.90
44747;DHT22;30472;49.490;10.972;2023-09-19T04:31:41;15.60;99.90
44747;DHT22;30472;49.490;10.972;2023-09-19T04:34:10;15.60;99.90
44747;DHT22;30472;49.490;10.972;2023-09-19T04:36:39;15.60;99.90
44747;DHT22;30472;49.490;10.972;2023-09-19T04:39:05;15.60;99.90
44747;DHT22;30472;49.490;10.972;2023-09-19T04:41:31;15.60;99.90
44747;DHT22;30472;49.490;10.972;2023-09-19T04:43:56;15.70;99.90
44747;DHT22;30472;49.490;10.972;2023-09-19T04:46:22;15.60;99.90
44747;DHT22;30472;49.490;10.972;2023-09-19T04:48:47;15.60;99.90
44747;DHT22;30472;49.490;10.972;2023-09-19T04:51:13;15.70;99.90
44747;DHT22;30472;49.490;10.972;2023-09-19T04:53:40;15.70;99.90
44747;DHT22;30472;49.490;10.972;2023-09-19T04:56:06;15.80;99.90
44747;DHT22;30472;49.490;10.972;2023-09-19T04:58:33;15.80;99.90
44747;DHT22;30472;49.490;10.972;2023-09-19T05:00:59;15.80;99.90
44747;DHT22;30472;49.490;10.972;2023-09-19T05:03:25;15.80;99.90
44747;DHT22;30472;49.490;10.972;2023-09-19T05:05:50;15.90;99.90
44747;DHT22;30472;49.490;10.972;2023-09-19T05:08:16;15.90;99.90
44747;DHT22;30472;49.490;10.972;2023-09-19T05:10:41;15.90;99.90
44747;DHT22;30472;49.490;10.972;2023-09-19T05:13:07;15.90;99.90
44747;DHT22;30472;49.490;10.972;2023-09-19T05:15:33;15.90;99.90
44747;DHT22;30472;49.490;10.972;2023-09-19T05:17:59;15.90;99.90
44747;DHT22;30472;49.490;10.972;2023-09-19T05:20:25;15.90;99.90
44747;DHT22;30472;49.490;10.972;2023-09-19T05:23:05;15.90;99.90
44747;DHT22;30472;49.490;10.972;2023-09-19T05:25:34;15.90;99.90
44747;DHT22;30472;49.490;10.972;2023-09-19T05:28:03;15.80;99.90
44747;DHT22;30472;49.490;10.972;2023-09-19T05:30:29;15.90;99.90
44747;DHT22;30472;49.490;10.972;2023-09-19T05:32:55;16.00;99.90
44747;DHT22;30472;49.490;10.972;2023-09-19T05:35:21;15.90;99.90
44747;DHT22;30472;49.490;10.972;2023-09-19T05:37:51;16.00;99.90
44747;DHT22;30472;49.490;10.972;2023-09-19T05:40:17;16.00;99.90
44747;DHT22;30472;49.490;10.972;2023-09-19T05:42:43;16.10;99.90
44747;DHT22;30472;49.490;10.972;2023-09-19T05:45:09;16.10;99.90
44747;DHT22;30472;49.490;10.972;2023-09-19T05:47:41;16.10;99.90
44747;DHT22;30472;49.490;10.972;2023-09-19T05:50:09;16.20;99.90
44747;DHT22;30472;49.490;10.972;2023-09-19T05:52:35;16.10;99.90
44747;DHT22;30472;49.490;10.972;2023-09-19T05:55:05;16.20;99.90
44747;DHT22;30472;49.490;10.972;2023-09-19T05:57:33;16.20;99.90
44747;DHT22;30472;49.490;10.972;2023-09-19T05:59:59;16.20;99.90
44747;DHT22;30472;49.490;10.972;2023-09-19T06:02:24;16.30;99.90
44747;DHT22;30472;49.490;10.972;2023-09-19T06:04:54;16.30;99.90
44747;DHT22;30472;49.490;10.972;2023-09-19T06:07:23;16.40;99.90
44747;DHT22;30472;49.490;10.972;2023-09-19T06:09:52;16.40;99.90
44747;DHT22;30472;49.490;10.972;2023-09-19T06:12:19;16.40;99.90
44747;DHT22;30472;49.490;10.972;2023-09-19T06:14:44;16.50;99.90
44747;DHT22;30472;49.490;10.972;2023-09-19T06:17:10;16.60;99.90
44747;DHT22;30472;49.490;10.972;2023-09-19T06:19:36;16.60;99.90
44747;DHT22;30472;49.490;10.972;2023-09-19T06:22:01;16.70;99.90
44747;DHT22;30472;49.490;10.972;2023-09-19T06:24:27;16.70;99.90
44747;DHT22;30472;49.490;10.972;2023-09-19T06:26:53;16.80;99.90
44747;DHT22;30472;49.490;10.972;2023-09-19T06:29:20;16.70;99.90
44747;DHT22;30472;49.490;10.972;2023-09-19T06:31:48;16.60;99.90
44747;DHT22;30472;49.490;10.972;2023-09-19T06:34:14;16.60;99.90
44747;DHT22;30472;49.490;10.972;2023-09-19T06:36:40;16.70;99.90
44747;DHT22;30472;49.490;10.972;2023-09-19T06:39:06;16.70;99.90
44747;DHT22;30472;49.490;10.972;2023-09-19T06:41:32;16.80;99.90
44747;DHT22;30472;49.490;10.972;2023-09-19T06:43:57;16.80;99.90
44747;DHT22;30472;49.490;10.972;2023-09-19T06:46:23;16.80;99.90
44747;DHT22;30472;49.490;10.972;2023-09-19T06:48:50;16.80;99.90
44747;DHT22;30472;49.490;10.972;2023-09-19T06:51:18;16.80;99.90
44747;DHT22;30472;49.490;10.972;2023-09-19T06:53:43;16.90;99.90
44747;DHT22;30472;49.490;10.972;2023-09-19T06:56:09;16.90;99.90
44747;DHT22;30472;49.490;10.972;2023-09-19T06:58:35;17.00;99.90
44747;DHT22;30472;49.490;10.972;2023-09-19T07:01:02;17.00;99.90
44747;DHT22;30472;49.490;10.972;2023-09-19T07:03:28;17.00;99.90
44747;DHT22;30472;49.490;10.972;2023-09-19T07:05:54;17.10;99.90
44747;DHT22;30472;49.490;10.972;2023-09-19T07:08:21;17.20;99.90
44747;DHT22;30472;49.490;10.972;2023-09-19T07:10:47;17.20;99.90
44747;DHT22;30472;49.490;10.972;2023-09-19T07:13:19;17.30;99.90
44747;DHT22;30472;49.490;10.972;2023-09-19T07:15:45;17.50;99.90
44747;DHT22;30472;49.490;10.972;2023-09-19T07:18:16;17.80;99.90
44747;DHT22;30472;49.490;10.972;2023-09-19T07:20:43;18.50;99.90
44747;DHT22;30472;49.490;10.972;2023-09-19T07:23:21;18.90;99.90
44747;DHT22;30472;49.490;10.972;2023-09-19T07:25:48;19.00;99.90
44747;DHT22;30472;49.490;10.972;2023-09-19T07:28:15;19.20;99.90
44747;DHT22;30472;49.490;10.972;2023-09-19T07:30:41;19.20;99.90
44747;DHT22;30472;49.490;10.972;2023-09-19T07:33:07;19.30;99.90
44747;DHT22;30472;49.490;10.972;2023-09-19T07:35:36;19.00;99.90
44747;DHT22;30472;49.490;10.972;2023-09-19T07:38:05;18.80;99.90
44747;DHT22;30472;49.490;10.972;2023-09-19T07:40:30;18.70;99.90
44747;DHT22;30472;49.490;10.972;2023-09-19T07:42:56;18.70;99.90
44747;DHT22;30472;49.490;10.972;2023-09-19T07:45:21;18.80;99.90
44747;DHT22;30472;49.490;10.972;2023-09-19T07:47:49;18.90;99.90
44747;DHT22;30472;49.490;10.972;2023-09-19T07:50:16;18.90;99.90
44747;DHT22;30472;49.490;10.972;2023-09-19T07:52:44;18.40;99.90
44747;DHT22;30472;49.490;10.972;2023-09-19T07:55:10;18.60;99.90
44747;DHT22;30472;49.490;10.972;2023-09-19T07:57:42;19.30;99.90
44747;DHT22;30472;49.490;10.972;2023-09-19T08:00:08;19.60;99.90
44747;DHT22;30472;49.490;10.972;2023-09-19T08:02:36;20.30;99.90
44747;DHT22;30472;49.490;10.972;2023-09-19T08:05:03;20.80;99.90
44747;DHT22;30472;49.490;10.972;2023-09-19T08:07:32;20.00;99.90
44747;DHT22;30472;49.490;10.972;2023-09-19T08:09:58;19.40;99.90
44747;DHT22;30472;49.490;10.972;2023-09-19T08:12:24;19.20;99.90
44747;DHT22;30472;49.490;10.972;2023-09-19T08:14:50;19.20;99.90
44747;DHT22;30472;49.490;10.972;2023-09-19T08:17:16;19.00;99.90
44747;DHT22;30472;49.490;10.972;2023-09-19T08:19:41;18.90;99.90
44747;DHT22;30472;49.490;10.972;2023-09-19T08:22:10;19.10;99.90
44747;DHT22;30472;49.490;10.972;2023-09-19T08:24:36;19.00;99.90
44747;DHT22;30472;49.490;10.972;2023-09-19T08:27:03;19.10;99.90
44747;DHT22;30472;49.490;10.972;2023-09-19T08:29:30;19.30;99.90
44747;DHT22;30472;49.490;10.972;2023-09-19T08:31:59;19.80;99.90
44747;DHT22;30472;49.490;10.972;2023-09-19T08:34:25;20.60;99.90
44747;DHT22;30472;49.490;10.972;2023-09-19T08:36:52;21.40;99.90
44747;DHT22;30472;49.490;10.972;2023-09-19T08:39:26;21.60;99.90
44747;DHT22;30472;49.490;10.972;2023-09-19T08:41:59;21.10;99.90
44747;DHT22;30472;49.490;10.972;2023-09-19T08:44:25;21.00;99.90
44747;DHT22;30472;49.490;10.972;2023-09-19T08:46:55;20.70;99.90
44747;DHT22;30472;49.490;10.972;2023-09-19T08:49:33;20.60;99.90
44747;DHT22;30472;49.490;10.972;2023-09-19T08:55:06;20.40;99.90
44747;DHT22;30472;49.490;10.972;2023-09-19T08:57:36;20.40;99.90
44747;DHT22;30472;49.490;10.972;2023-09-19T09:00:07;20.00;99.90
44747;DHT22;30472;49.490;10.972;2023-09-19T09:02:41;19.60;99.90
44747;DHT22;30472;49.490;10.972;2023-09-19T09:05:09;19.40;99.90
44747;DHT22;30472;49.490;10.972;2023-09-19T09:07:37;19.30;99.90
44747;DHT22;30472;49.490;10.972;2023-09-19T09:10:03;19.40;99.90
44747;DHT22;30472;49.490;10.972;2023-09-19T09:12:29;19.40;99.90
44747;DHT22;30472;49.490;10.972;2023-09-19T09:14:55;19.10;99.90
44747;DHT22;30472;49.490;10.972;2023-09-19T09:17:23;19.00;99.90
44747;DHT22;30472;49.490;10.972;2023-09-19T09:19:53;19.40;99.90
44747;DHT22;30472;49.490;10.972;2023-09-19T09:22:19;20.00;99.90
44747;DHT22;30472;49.490;10.972;2023-09-19T09:24:57;20.00;99.90
44747;DHT22;30472;49.490;10.972;2023-09-19T09:27:30;20.00;99.90
44747;DHT22;30472;49.490;10.972;2023-09-19T09:29:58;20.10;99.90
44747;DHT22;30472;49.490;10.972;2023-09-19T09:34:55;20.00;99.90
44747;DHT22;30472;49.490;10.972;2023-09-19T09:37:22;19.90;99.90
44747;DHT22;30472;49.490;10.972;2023-09-19T09:39:57;20.00;99.90
44747;DHT22;30472;49.490;10.972;2023-09-19T09:42:36;20.10;99.90
44747;DHT22;30472;49.490;10.972;2023-09-19T09:45:24;19.70;99.90
44747;DHT22;30472;49.490;10.972;2023-09-19T09:47:59;20.00;99.90
44747;DHT22;30472;49.490;10.972;2023-09-19T09:50:29;19.80;99.90
44747;DHT22;30472;49.490;10.972;2023-09-19T09:53:12;20.10;99.90
44747;DHT22;30472;49.490;10.972;2023-09-19T09:56:02;19.90;99.90
44747;DHT22;30472;49.490;10.972;2023-09-19T09:58:34;19.80;99.90
44747;DHT22;30472;49.490;10.972;2023-09-19T10:01:01;19.70;99.90
44747;DHT22;30472;49.490;10.972;2023-09-19T10:03:37;20.20;99.90
44747;DHT22;30472;49.490;10.972;2023-09-19T10:06:10;20.10;99.90
44747;DHT22;30472;49.490;10.972;2023-09-19T10:09:08;20.50;99.90
44747;DHT22;30472;49.490;10.972;2023-09-19T10:11:47;20.40;99.90
44747;DHT22;30472;49.490;10.972;2023-09-19T10:14:20;20.60;99.90
44747;DHT22;30472;49.490;10.972;2023-09-19T10:16:50;20.60;99.90
44747;DHT22;30472;49.490;10.972;2023-09-19T10:19:26;20.20;99.90
44747;DHT22;30472;49.490;10.972;2023-09-19T10:21:55;20.20;99.90
44747;DHT22;30472;49.490;10.972;2023-09-19T10:24:22;20.60;99.90
44747;DHT22;30472;49.490;10.972;2023-09-19T10:26:50;20.70;99.90
44747;DHT22;30472;49.490;10.972;2023-09-19T10:29:17;20.80;99.90
44747;DHT22;30472;49.490;10.972;2023-09-19T10:31:47;20.50;99.90
44747;DHT22;30472;49.490;10.972;2023-09-19T10:34:14;20.20;99.90
44747;DHT22;30472;49.490;10.972;2023-09-19T10:36:46;20.00;99.90
44747;DHT22;30472;49.490;10.972;2023-09-19T10:39:15;20.50;99.90
44747;DHT22;30472;49.490;10.972;2023-09-19T10:41:50;20.70;99.90
44747;DHT22;30472;49.490;10.972;2023-09-19T10:44:24;21.00;99.90
44747;DHT22;30472;49.490;10.972;2023-09-19T10:46:51;21.20;99.90
44747;DHT22;30472;49.490;10.972;2023-09-19T10:49:18;20.60;99.90
44747;DHT22;30472;49.490;10.972;2023-09-19T10:51:44;20.80;99.90
44747;DHT22;30472;49.490;10.972;2023-09-19T10:54:14;21.40;99.90
44747;DHT22;30472;49.490;10.972;2023-09-19T10:56:49;21.30;99.90
44747;DHT22;30472;49.490;10.972;2023-09-19T10:59:17;21.00;99.90
44747;DHT22;30472;49.490;10.972;2023-09-19T11:01:45;20.40;99.90
44747;DHT22;30472;49.490;10.972;2023-09-19T11:04:33;20.10;99.90
44747;DHT22;30472;49.490;10.972;2023-09-19T11:10:02;20.20;99.90
44747;DHT22;30472;49.490;10.972;2023-09-19T11:15:03;20.00;99.90
44747;DHT22;30472;49.490;10.972;2023-09-19T11:17:39;19.80;99.90
44747;DHT22;30472;49.490;10.972;2023-09-19T11:30:50;21.20;99.90
44747;DHT22;30472;49.490;10.972;2023-09-19T11:33:27;21.10;99.90
44747;DHT22;30472;49.490;10.972;2023-09-19T11:46:30;20.90;99.90
44747;DHT22;30472;49.490;10.972;2023-09-19T11:49:05;21.00;99.90
44747;DHT22;30472;49.490;10.972;2023-09-19T11:51:40;20.90;99.90
44747;DHT22;30472;49.490;10.972;2023-09-19T11:54:10;21.20;99.90
44747;DHT22;30472;49.490;10.972;2023-09-19T11:56:43;21.20;99.90
44747;DHT22;30472;49.490;10.972;2023-09-19T11:59:09;20.90;99.90
44747;DHT22;30472;49.490;10.972;2023-09-19T12:01:37;21.00;99.90
44747;DHT22;30472;49.490;10.972;2023-09-19T12:04:07;21.30;99.90
44747;DHT22;30472;49.490;10.972;2023-09-19T12:06:33;20.50;99.90
44747;DHT22;30472;49.490;10.972;2023-09-19T12:09:00;20.40;99.90
44747;DHT22;30472;49.490;10.972;2023-09-19T12:11:30;20.10;99.90
44747;DHT22;30472;49.490;10.972;2023-09-19T12:13:59;20.40;99.90
44747;DHT22;30472;49.490;10.972;2023-09-19T12:16:26;20.30;99.90
44747;DHT22;30472;49.490;10.972;2023-09-19T12:18:56;21.10;99.90
44747;DHT22;30472;49.490;10.972;2023-09-19T12:21:30;21.30;99.90
44747;DHT22;30472;49.490;10.972;2023-09-19T12:26:43;21.60;99.90
44747;DHT22;30472;49.490;10.972;2023-09-19T12:29:20;21.70;99.90
44747;DHT22;30472;49.490;10.972;2023-09-19T12:31:53;21.70;99.90
44747;DHT22;30472;49.490;10.972;2023-09-19T12:34:24;20.90;99.90
44747;DHT22;30472;49.490;10.972;2023-09-19T12:37:10;20.30;99.90
44747;DHT22;30472;49.490;10.972;2023-09-19T12:39:44;20.90;99.90
44747;DHT22;30472;49.490;10.972;2023-09-19T12:42:15;20.60;99.90
44747;DHT22;30472;49.490;10.972;2023-09-19T12:44:42;20.50;99.90
44747;DHT22;30472;49.490;10.972;2023-09-19T12:47:16;20.50;99.90
44747;DHT22;30472;49.490;10.972;2023-09-19T12:50:05;20.70;99.90
44747;DHT22;30472;49.490;10.972;2023-09-19T12:52:42;20.90;99.90
44747;DHT22;30472;49.490;10.972;2023-09-19T12:55:20;21.10;99.90
44747;DHT22;30472;49.490;10.972;2023-09-19T12:58:13;21.30;99.90
44747;DHT22;30472;49.490;10.972;2023-09-19T13:00:44;21.60;99.90
44747;DHT22;30472;49.490;10.972;2023-09-19T13:03:28;21.60;99.90
44747;DHT22;30472;49.490;10.972;2023-09-19T13:06:01;21.60;99.90
44747;DHT22;30472;49.490;10.972;2023-09-19T13:08:30;21.90;99.90
44747;DHT22;30472;49.490;10.972;2023-09-19T13:11:16;22.00;99.90
44747;DHT22;30472;49.490;10.972;2023-09-19T13:14:13;21.60;99.90
44747;DHT22;30472;49.490;10.972;2023-09-19T13:17:03;21.60;99.90
44747;DHT22;30472;49.490;10.972;2023-09-19T13:19:49;21.70;99.90
44747;DHT22;30472;49.490;10.972;2023-09-19T13:22:37;22.10;99.90
44747;DHT22;30472;49.490;10.972;2023-09-19T13:25:12;21.60;99.90
44747;DHT22;30472;49.490;10.972;2023-09-19T13:27:45;21.90;99.90
44747;DHT22;30472;49.490;10.972;2023-09-19T13:30:14;22.40;99.90
44747;DHT22;30472;49.490;10.972;2023-09-19T13:32:40;22.90;99.90
44747;DHT22;30472;49.490;10.972;2023-09-19T13:35:08;23.10;99.90
44747;DHT22;30472;49.490;10.972;2023-09-19T13:37:39;22.60;99.90
44747;DHT22;30472;49.490;10.972;2023-09-19T13:40:13;21.80;99.90
44747;DHT22;30472;49.490;10.972;2023-09-19T13:42:39;22.00;99.90
44747;DHT22;30472;49.490;10.972;2023-09-19T13:45:06;22.20;99.90
44747;DHT22;30472;49.490;10.972;2023-09-19T13:47:32;22.40;99.90
44747;DHT22;30472;49.490;10.972;2023-09-19T13:50:02;22.50;99.90
44747;DHT22;30472;49.490;10.972;2023-09-19T13:52:30;22.30;99.90
44747;DHT22;30472;49.490;10.972;2023-09-19T13:54:56;22.40;99.90
44747;DHT22;30472;49.490;10.972;2023-09-19T13:57:31;22.20;99.90
44747;DHT22;30472;49.490;10.972;2023-09-19T13:59:58;22.10;99.90
44747;DHT22;30472;49.490;10.972;2023-09-19T14:02:24;22.10;99.90
44747;DHT22;30472;49.490;10.972;2023-09-19T14:04:50;22.20;99.90
44747;DHT22;30472;49.490;10.972;2023-09-19T14:07:16;21.90;99.90
44747;DHT22;30472;49.490;10.972;2023-09-19T14:09:43;21.70;99.90
44747;DHT22;30472;49.490;10.972;2023-09-19T14:12:08;21.40;99.90
44747;DHT22;30472;49.490;10.972;2023-09-19T14:14:34;21.50;99.90
44747;DHT22;30472;49.490;10.972;2023-09-19T14:17:00;21.50;99.90
44747;DHT22;30472;49.490;10.972;2023-09-19T14:19:27;21.60;99.90
44747;DHT22;30472;49.490;10.972;2023-09-19T14:21:52;21.80;99.90
44747;DHT22;30472;49.490;10.972;2023-09-19T14:24:21;21.80;99.90
44747;DHT22;30472;49.490;10.972;2023-09-19T14:26:47;21.80;99.90
44747;DHT22;30472;49.490;10.972;2023-09-19T14:29:13;21.80;99.90
44747;DHT22;30472;49.490;10.972;2023-09-19T14:31:39;21.90;99.90
44747;DHT22;30472;49.490;10.972;2023-09-19T14:34:06;21.70;99.90
44747;DHT22;30472;49.490;10.972;2023-09-19T14:36:31;21.50;99.90
44747;DHT22;30472;49.490;10.972;2023-09-19T14:39:01;21.50;99.90
44747;DHT22;30472;49.490;10.972;2023-09-19T14:41:28;21.50;99.90
44747;DHT22;30472;49.490;10.972;2023-09-19T14:43:56;21.40;99.90
44747;DHT22;30472;49.490;10.972;2023-09-19T14:46:22;21.50;99.90
44747;DHT22;30472;49.490;10.972;2023-09-19T14:48:53;21.40;99.90
44747;DHT22;30472;49.490;10.972;2023-09-19T14:51:19;21.40;99.90
44747;DHT22;30472;49.490;10.972;2023-09-19T14:53:45;21.50;99.90
44747;DHT22;30472;49.490;10.972;2023-09-19T14:56:11;21.50;99.90
44747;DHT22;30472;49.490;10.972;2023-09-19T14:58:38;21.30;99.90
44747;DHT22;30472;49.490;10.972;2023-09-19T15:01:11;21.20;99.90
44747;DHT22;30472;49.490;10.972;2023-09-19T15:03:39;21.00;99.90
44747;DHT22;30472;49.490;10.972;2023-09-19T15:06:06;21.10;99.90
44747;DHT22;30472;49.490;10.972;2023-09-19T15:08:36;21.20;99.90
44747;DHT22;30472;49.490;10.972;2023-09-19T15:11:07;21.20;99.90
44747;DHT22;30472;49.490;10.972;2023-09-19T15:13:33;21.30;99.90
44747;DHT22;30472;49.490;10.972;2023-09-19T15:16:05;21.70;99.90
44747;DHT22;30472;49.490;10.972;2023-09-19T15:18:35;21.80;99.90
44747;DHT22;30472;49.490;10.972;2023-09-19T15:21:05;21.80;99.90
44747;DHT22;30472;49.490;10.972;2023-09-19T15:23:32;22.20;99.90
44747;DHT22;30472;49.490;10.972;2023-09-19T15:26:05;22.00;99.90
44747;DHT22;30472;49.490;10.972;2023-09-19T15:28:32;21.90;99.90
44747;DHT22;30472;49.490;10.972;2023-09-19T15:31:17;22.10;99.90
44747;DHT22;30472;49.490;10.972;2023-09-19T15:33:42;21.80;99.90
44747;DHT22;30472;49.490;10.972;2023-09-19T15:36:13;21.50;99.90
44747;DHT22;30472;49.490;10.972;2023-09-19T15:39:05;21.30;99.90
44747;DHT22;30472;49.490;10.972;2023-09-19T15:41:37;21.00;99.90
44747;DHT22;30472;49.490;10.972;2023-09-19T15:44:04;20.80;99.90
44747;DHT22;30472;49.490;10.972;2023-09-19T15:46:31;20.70;99.90
44747;DHT22;30472;49.490;10.972;2023-09-19T15:48:57;20.60;99.90
44747;DHT22;30472;49.490;10.972;2023-09-19T15:51:23;20.60;99.90
44747;DHT22;30472;49.490;10.972;2023-09-19T15:53:50;20.50;99.90
44747;DHT22;30472;49.490;10.972;2023-09-19T15:56:17;20.50;99.90
44747;DHT22;30472;49.490;10.972;2023-09-19T15:58:47;20.40;99.90
44747;DHT22;30472;49.490;10.972;2023-09-19T16:01:14;20.40;99.90
44747;DHT22;30472;49.490;10.972;2023-09-19T16:03:45;20.30;99.90
44747;DHT22;30472;49.490;10.972;2023-09-19T16:06:14;20.30;99.90
44747;DHT22;30472;49.490;10.972;2023-09-19T16:08:44;20.20;99.90
44747;DHT22;30472;49.490;10.972;2023-09-19T16:11:11;20.20;99.90
44747;DHT22;30472;49.490;10.972;2023-09-19T16:13:38;20.10;99.90
44747;DHT22;30472;49.490;10.972;2023-09-19T16:16:04;20.10;99.90